• Join FlightAware (Why Join?)
  • Login
  • US Flag 
02:16PM EDT


 

Airport Tracker/Info


-or-


 

Live Flight TrackerFlight Track Log ✈ THY1077 ✈ 22-Apr-2013 ✈ LTBA / IST - LATI / TIA

Flight Track Log - Related Links

Times and Time Zones

All times are in EDT time to prevent confusion due to time zone crossing. See the THY1077 flight status page for this flight to view local times or setup timezone preferences in your user account.

Time Position Orientation Groundspeed Altitude Reporting Facility
EDT Latitude Longitude Course Direction KTS MPH feet Rate Location/Type
12:25PM 41.0289 28.2114 277° West  Level Estimated
12:26PM 41.0389 28.0894 276° West  Level Estimated
12:27PM 41.0488 27.9673 276° West  Level Estimated
12:28PM 41.0586 27.8452 276° West  Level Estimated
12:29PM 41.0682 27.7230 276° West  Level Estimated
12:30PM 41.0777 27.6008 276° West  Level Estimated
12:31PM 41.0871 27.4786 276° West  Level Estimated
12:32PM 41.0964 27.3563 276° West  Level Estimated
12:33PM 41.1055 27.2340 276° West  Level Estimated
12:34PM 41.1145 27.1117 276° West  Level Estimated
12:35PM 41.1233 26.9893 276° West  Level Estimated
12:36PM 41.1320 26.8669 275° West  Level Estimated
12:37PM 41.1407 26.7445 275° West  Level Estimated
12:38PM 41.1491 26.6221 275° West  Level Estimated
12:39PM 41.1575 26.4996 275° West  Level Estimated
12:40PM 41.1657 26.3771 275° West  Level Estimated
12:41PM 41.1738 26.2545 275° West  Level Estimated
12:42PM 41.1817 26.1319 275° West  Level Estimated
12:43PM 41.1895 26.0093 275° West  Level Estimated
12:44PM 41.1972 25.8867 275° West  Level Estimated
12:45PM 41.2048 25.7640 275° West  Level Estimated
12:46PM 41.2122 25.6413 275° West  Level Estimated
12:47PM 41.2195 25.5186 275° West  Level Estimated
12:48PM 41.2267 25.3958 274° West  Level Estimated
12:49PM 41.2337 25.2730 274° West  Level Estimated
12:50PM 41.2406 25.1502 274° West  Level Estimated
12:51PM 41.2474 25.0274 274° West  Level Estimated
12:52PM 41.2541 24.9045 274° West  Level Estimated
12:53PM 41.2606 24.7817 274° West  Level Estimated
12:54PM 41.2669 24.6588 274° West  Level Estimated
12:55PM 41.2732 24.5358 274° West  Level Estimated
12:56PM 41.2793 24.4129 274° West  Level Estimated
12:57PM 41.2853 24.2899 274° West  Level Estimated
12:58PM 41.2912 24.1669 274° West  Level Estimated
12:59PM 41.2969 24.0439 274° West  Level Estimated
01:00PM 41.3025 23.9208 274° West  Level Estimated
01:01PM 41.3080 23.7978 273° West  Level Estimated
01:02PM 41.3133 23.6747 273° West  Level Estimated
01:03PM 41.3185 23.5516 273° West  Level Estimated
01:04PM 41.3236 23.4285 273° West  Level Estimated
01:05PM 41.3285 23.3053 273° West  Level Estimated
01:06PM 41.3334 23.1822 273° West  Level Estimated
01:07PM 41.3380 23.0590 273° West  Level Estimated
01:08PM 41.3426 22.9358 273° West  Level Estimated
01:09PM 41.3470 22.8126 273° West  Level Estimated
01:10PM 41.3513 22.6894 273° West  Level Estimated
01:11PM 41.3554 22.5661 273° West  Level Estimated
01:12PM 41.3595 22.4428 273° West  Level Estimated
01:13PM 41.3634 22.3196 272° West  Level Estimated
01:14PM 41.3671 22.1963 272° West  Level Estimated
01:15PM 41.3708 22.0730 272° West  Level Estimated
01:16PM 41.3742 21.9496 272° West  Level Estimated
01:17PM 41.3776 21.8263 272° West  Level Estimated
01:18PM 41.3809 21.7030 272° West  Level Estimated
01:19PM 41.3839 21.5796 272° West  Level Estimated
01:20PM 41.3869 21.4562 272° West  Level Estimated
01:21PM 41.3898 21.3329 272° West  Level Estimated
01:22PM 41.3925 21.2095 272° West  Level Estimated
01:23PM 41.3951 21.0861 272° West  Level Estimated
01:24PM 41.3975 20.9627 272° West  Level Estimated
01:25PM 41.3998 20.8393 271° West  Level Estimated
01:26PM 41.4020 20.7158 271° West  Level Estimated
01:27PM 41.4040 20.5924 271° West  Level Estimated
01:28PM 41.4059 20.4690 271° West  Level Estimated
01:29PM 41.4077 20.3455 271° West  Level Estimated
01:30PM 41.4094 20.2220 271° West  Level Estimated
01:31PM 41.4109 20.0986 271° West  Level Estimated
01:32PM 41.4123 19.9751 271° West  Level Estimated
01:33PM 41.4136 19.8517 271° West  Level Estimated
01:34PM 41.4147 19.7282 271° West  Level Estimated
01:35PM 41.4147 19.7206 271° West  Level Estimated
01:36PM 41.4147 19.7206 21° North  Level Estimated
01:37PM 41.4147 19.7206 21° North  Level Estimated
01:38PM 41.4147 19.7206 21° North  Level Estimated
01:39PM 41.4147 19.7206 21° North  Level Estimated
01:40PM 41.4147 19.7206 21° North  Level Estimated
01:41PM 41.4147 19.7206 21° North  Level Estimated
01:42PM 41.4147 19.7206 21° North  Level Estimated
01:43PM 41.4147 19.7206 21° North  Level Estimated